DAAP

Illizi Takhamalt Airport

Illizi, Algeria
METAR DAAP 231400Z 31006KT 6000 NSC 19/00 Q1009
Observed Flight Rules
Feb-23 @ 14:00 UTC (31 minutes ago) Marginal Visual Flight Rules
Wind Visibility Clouds
310° at 6 knots 6,003 meters
  • Clear skies
Temperatures Readings
Current 19°C / 66°F
Dewpoint 0°C / 32°F
Humidity 28%
Altimeter 29.79" Hg
Pressure 1009 hPa
Elevation 558
METAR DAAP 231400Z 31006KT 6000 NSC 19/00 Q1009
Observed Flight Rules
Feb-23 @ 14:00 UTC
(31 minutes ago)
MVFR
Wind Visibility
310° at 6 knots 6,003 meters
Clouds
  • Clear skies
Temperature Dewpoint
19°C / 66°F 0°C / 32°F
Humidity Altimeter Pressure
28% 29.79" Hg 1009 hPa